Time;durP1;ratioP1;P1;durP2;ratioP2;P2;SDS_P1;SDS_P2;PMS_P1;PMS_P2;Temp;Humidity;BMP_temperature;BMP_pressure;BME280_temperature;BME280_humidity;BME280_pressure;Samples;Min_cycle;Max_cycle;Signal;HPM_P1;HPM_P2
2024/04/21 00:01:30;;;;;;;11.60;1.70;;;;;;;-146.27;65.28;46109.75;5456164;26;20362;-67
2024/04/21 00:03:55;;;;;;;10.07;1.75;;;;;;;-146.27;65.06;46137.63;5449793;26;20006;-66
2024/04/21 00:06:21;;;;;;;8.35;1.60;;;;;;;-146.27;65.79;46151.56;5484182;26;19994;-67
2024/04/21 00:08:46;;;;;;;6.75;1.30;;;;;;;-146.27;65.49;46167.47;5483880;26;20062;-67
2024/04/21 00:11:11;;;;;;;14.75;1.35;;;;;;;-146.27;65.95;46185.41;5459755;26;20011;-67
2024/04/21 00:13:37;;;;;;;10.48;2.03;;;;;;;-146.27;67.08;46157.53;5461341;26;20014;-67
2024/04/21 00:16:02;;;;;;;10.82;1.85;;;;;;;-146.27;68.44;46111.75;5456259;26;20013;-67
2024/04/21 00:18:28;;;;;;;5.50;1.10;;;;;;;-146.27;68.41;46151.56;5497196;25;20033;-66
2024/04/21 00:20:53;;;;;;;8.82;1.05;;;;;;;-146.27;68.62;46129.66;5480835;26;20014;-67
2024/04/21 00:23:19;;;;;;;10.70;1.10;;;;;;;-146.27;69.29;46093.81;5492862;26;20369;-66
2024/04/21 00:25:44;;;;;;;9.52;1.23;;;;;;;-146.27;69.74;46115.72;5479314;26;20014;-67
2024/04/21 00:28:09;;;;;;;16.95;1.95;;;;;;;-146.27;69.12;46105.78;5461004;26;20009;-67
2024/04/21 00:30:35;;;;;;;10.13;1.35;;;;;;;-146.27;68.36;46137.63;5477330;26;20010;-68
2024/04/21 00:33:00;;;;;;;6.93;1.42;;;;;;;-146.27;69.07;46121.69;5464178;26;19995;-70
2024/04/21 00:35:26;;;;;;;11.73;2.38;;;;;;;-146.27;68.61;46139.63;5481828;26;19998;-69
2024/04/21 00:37:51;;;;;;;7.72;1.00;;;;;;;-146.27;68.30;46121.69;5484100;26;20012;-70
2024/04/21 00:40:17;;;;;;;13.55;1.42;;;;;;;-146.27;70.13;46117.72;5473322;26;20013;-70
2024/04/21 00:42:42;;;;;;;8.75;1.65;;;;;;;-146.27;70.22;46073.91;5472064;26;20002;-70
2024/04/21 00:45:07;;;;;;;8.52;1.48;;;;;;;-146.27;70.81;46060.00;5484398;26;20099;-71
2024/04/21 00:47:36;;;;;;;6.22;1.00;;;;;;;-146.27;70.94;46056.00;5482546;26;20983;-69
2024/04/21 00:50:02;;;;;;;5.18;1.20;;;;;;;-146.27;71.89;46046.06;5471854;26;20010;-69
2024/04/21 00:52:28;;;;;;;9.90;0.85;;;;;;;-146.27;73.11;46030.13;5484818;26;20327;-69
2024/04/21 00:54:54;;;;;;;5.55;1.30;;;;;;;-146.27;72.73;46018.19;5484788;26;20004;-71
2024/04/21 00:57:20;;;;;;;8.27;1.42;;;;;;;-146.27;73.09;45984.34;5456775;26;20011;-69
2024/04/21 00:59:46;;;;;;;7.40;1.48;;;;;;;-146.27;73.56;46000.28;5480279;26;19998;-70
2024/04/21 01:02:12;;;;;;;5.43;1.13;;;;;;;-146.27;74.66;45970.41;5453400;26;20014;-70
2024/04/21 01:04:38;;;;;;;7.90;1.52;;;;;;;-146.27;75.36;45942.53;5448704;26;20007;-69
2024/04/21 01:07:04;;;;;;;4.47;1.30;;;;;;;-146.27;75.79;45928.63;5482656;26;20002;-69
2024/04/21 01:09:30;;;;;;;6.70;1.38;;;;;;;-146.27;76.32;45908.72;5482835;26;20006;-69
2024/04/21 01:11:55;;;;;;;5.97;1.75;;;;;;;-146.27;76.83;45896.75;5461490;26;20016;-70
2024/04/21 01:14:21;;;;;;;6.07;1.48;;;;;;;-146.27;78.27;45747.47;5479579;26;20014;-70
2024/04/21 01:16:46;;;;;;;5.78;2.25;;;;;;;-146.27;77.79;45727.56;5475733;26;20001;-70
2024/04/21 01:19:11;;;;;;;9.93;1.48;;;;;;;-146.27;77.64;45729.56;5480673;26;20012;-71
2024/04/21 01:21:37;;;;;;;14.10;1.70;;;;;;;-146.27;77.31;45711.66;5455103;26;20075;-70
2024/04/21 01:24:03;;;;;;;10.88;1.50;;;;;;;-146.27;76.29;45727.56;5506953;26;19993;-69
2024/04/21 01:26:29;;;;;;;5.22;1.30;;;;;;;-146.27;76.28;45721.59;5459905;25;20002;-69
2024/04/21 01:28:54;;;;;;;8.52;1.50;;;;;;;-146.27;76.08;45711.66;5464188;26;20128;-69
2024/04/21 01:31:22;;;;;;;20.58;1.40;;;;;;;-146.27;75.89;45729.56;5489699;26;19997;-71
2024/04/21 01:33:47;;;;;;;9.43;1.40;;;;;;;-146.27;75.20;45757.44;5451230;26;20072;-70
2024/04/21 01:36:13;;;;;;;8.90;1.23;;;;;;;-146.27;75.29;45741.50;5459555;26;20455;-71
2024/04/21 01:38:38;;;;;;;14.60;2.20;;;;;;;-146.27;74.69;45781.31;5451280;26;20316;-70
2024/04/21 01:41:03;;;;;;;11.32;2.15;;;;;;;-146.27;74.11;45751.47;5477034;26;20002;-68
2024/04/21 01:43:29;;;;;;;6.35;1.10;;;;;;;-146.27;73.67;45797.25;5479316;26;20031;-67
2024/04/21 01:45:54;;;;;;;4.88;0.80;;;;;;;-146.27;72.60;45811.19;5472466;25;19999;-65
2024/04/21 01:48:20;;;;;;;11.40;1.52;;;;;;;-146.27;73.06;45860.94;5451297;26;20584;-66
2024/04/21 01:50:48;;;;;;;13.90;1.50;;;;;;;-146.27;72.08;45847.00;5462446;26;19998;-66
2024/04/21 01:53:14;;;;;;;7.15;1.27;;;;;;;-146.27;71.15;45878.84;5513721;26;19997;-66
2024/04/21 01:55:39;;;;;;;9.93;1.17;;;;;;;-146.27;70.32;45934.59;5491096;25;20009;-67
2024/04/21 01:58:05;;;;;;;15.77;1.58;;;;;;;-146.27;69.16;45980.38;5485799;26;19994;-68
2024/04/21 02:00:31;;;;;;;18.00;1.15;;;;;;;-146.27;68.79;45962.44;5484859;26;20029;-68
2024/04/21 02:02:56;;;;;;;6.93;0.90;;;;;;;-146.27;68.27;45998.28;5491603;26;19993;-67
2024/04/21 02:05:21;;;;;;;11.70;1.58;;;;;;;-146.27;68.06;46016.19;5466864;26;20419;-66
2024/04/21 02:07:47;;;;;;;11.52;1.42;;;;;;;-146.27;68.22;46046.06;5472535;26;20507;-67
2024/04/21 02:10:12;;;;;;;13.95;1.45;;;;;;;-146.27;67.93;46052.03;5483646;26;20074;-68
2024/04/21 02:12:37;;;;;;;7.82;2.08;;;;;;;-146.27;68.17;46018.19;5485144;26;19994;-66
2024/04/21 02:15:03;;;;;;;9.57;1.73;;;;;;;-146.27;67.80;46026.16;5474139;26;20042;-69
2024/04/21 02:17:28;;;;;;;10.45;1.70;;;;;;;-146.27;67.85;46018.19;5454003;26;20462;-68
2024/04/21 02:19:53;;;;;;;11.88;1.60;;;;;;;-146.27;69.60;45960.47;5454121;26;20006;-66
2024/04/21 02:22:19;;;;;;;10.90;1.40;;;;;;;-146.27;75.15;45874.88;5471237;26;20006;-67
2024/04/21 02:24:44;;;;;;;8.20;1.20;;;;;;;-146.27;76.77;45767.38;5461285;26;20335;-66
2024/04/21 02:27:10;;;;;;;12.05;1.83;;;;;;;-146.27;77.26;45707.69;5484989;26;20020;-66
2024/04/21 02:29:35;;;;;;;9.85;1.30;;;;;;;-146.27;78.44;45653.94;5486758;26;19998;-66
2024/04/21 02:32:01;;;;;;;10.13;1.30;;;;;;;-146.27;77.76;45616.13;5484103;26;20021;-69
2024/04/21 02:34:26;;;;;;;7.28;1.27;;;;;;;-146.27;77.56;45622.09;5484779;26;20006;-67
2024/04/21 02:36:52;;;;;;;7.05;1.17;;;;;;;-146.27;77.78;45643.97;5460894;26;20002;-66
2024/04/21 02:39:17;;;;;;;16.38;1.70;;;;;;;-146.27;77.32;45626.06;5473516;26;20467;-67
2024/04/21 02:41:43;;;;;;;10.73;1.67;;;;;;;-146.27;78.46;45580.28;5481978;26;20586;-67
2024/04/21 02:44:08;;;;;;;10.55;1.50;;;;;;;-146.27;78.71;45514.63;5452095;26;20014;-67
2024/04/21 02:46:33;;;;;;;8.40;1.52;;;;;;;-146.27;79.13;45460.88;5453995;25;20003;-69
2024/04/21 02:48:59;;;;;;;15.93;1.23;;;;;;;-146.27;78.88;45431.03;5504566;26;20368;-67
2024/04/21 02:51:25;;;;;;;7.22;1.33;;;;;;;-146.27;78.60;45472.81;5489213;25;20371;-67
2024/04/21 02:53:50;;;;;;;15.95;1.85;;;;;;;-146.27;78.56;45405.16;5452669;26;20492;-67
2024/04/21 02:56:15;;;;;;;21.40;3.10;;;;;;;-146.27;77.78;45393.22;5480917;26;20073;-66
2024/04/21 02:58:41;;;;;;;12.55;1.65;;;;;;;-146.27;77.33;45413.09;5493541;26;20001;-66
2024/04/21 03:01:06;;;;;;;10.50;1.40;;;;;;;-146.27;76.63;45448.94;5496897;25;20009;-68
2024/04/21 03:03:31;;;;;;;16.88;2.35;;;;;;;-146.27;76.86;45456.91;5476871;26;20386;-67
2024/04/21 03:05:58;;;;;;;17.38;1.90;;;;;;;-146.27;75.96;45464.84;5478609;26;20127;-67
2024/04/21 03:08:26;;;;;;;15.10;1.60;;;;;;;-146.27;75.62;45478.78;5468039;26;19995;-66
2024/04/21 03:10:52;;;;;;;10.88;2.10;;;;;;;-146.27;75.52;45452.91;5474459;26;20170;-66
2024/04/21 03:13:18;;;;;;;13.35;2.15;;;;;;;-146.27;74.91;45468.84;5453265;26;19998;-67
2024/04/21 03:15:45;;;;;;;13.80;1.80;;;;;;;-146.27;76.00;45458.88;5451027;26;19995;-67
2024/04/21 03:18:11;;;;;;;10.00;1.63;;;;;;;-146.27;76.84;45417.09;5480081;26;20009;-66
2024/04/21 03:20:37;;;;;;;9.75;0.75;;;;;;;-146.27;77.97;45460.88;5450038;26;20330;-66
2024/04/21 03:23:02;;;;;;;5.22;0.90;;;;;;;-146.27;78.53;45464.84;5469564;26;19998;-67
2024/04/21 03:25:28;;;;;;;6.40;0.80;;;;;;;-146.27;79.68;45417.09;5483949;26;19994;-68
2024/04/21 03:27:53;;;;;;;4.72;1.30;;;;;;;-146.27;81.10;45291.72;5486219;26;20005;-68
2024/04/21 03:30:19;;;;;;;7.93;0.70;;;;;;;-146.27;81.37;45160.34;5460382;26;20308;-66
2024/04/21 03:32:44;;;;;;;6.30;0.90;;;;;;;-146.27;82.66;44899.66;5473984;26;20002;-67
2024/04/21 03:35:10;;;;;;;2.28;0.90;;;;;;;-146.27;82.42;44847.91;5464546;26;20018;-67
2024/04/21 03:37:35;;;;;;;1.63;0.80;;;;;;;-146.27;83.28;44662.88;5473665;26;20002;-67
2024/04/21 03:40:01;;;;;;;4.82;1.23;;;;;;;-146.27;84.26;44440.00;5477753;25;20023;-67
2024/04/21 03:42:27;;;;;;;4.55;0.85;;;;;;;-146.27;84.93;44264.91;5470234;26;20005;-66
2024/04/21 03:44:52;;;;;;;6.63;1.08;;;;;;;-146.27;84.99;44121.66;5469687;26;20458;-66
2024/04/21 03:47:17;;;;;;;4.10;0.68;;;;;;;-146.27;85.37;44058.00;5454488;26;20007;-67
2024/04/21 03:49:43;;;;;;;4.90;1.00;;;;;;;-146.27;85.72;43940.63;5464519;26;20003;-67
2024/04/21 03:52:08;;;;;;;8.13;1.48;;;;;;;-146.27;85.37;43924.69;5460331;26;20054;-66
2024/04/21 03:54:33;;;;;;;6.72;1.27;;;;;;;-146.27;85.50;43940.63;5485880;26;20060;-68
2024/04/21 03:57:05;;;;;;;10.27;1.15;;;;;;;-146.27;85.60;43920.72;5498994;26;20009;-67
2024/04/21 03:59:31;;;;;;;7.95;0.93;;;;;;;-146.27;84.86;43942.59;5505555;25;20001;-66
2024/04/21 04:01:56;;;;;;;6.70;1.13;;;;;;;-146.27;85.63;43845.13;5474606;26;20091;-66
2024/04/21 04:04:22;;;;;;;4.03;1.10;;;;;;;-146.27;85.87;43809.31;5483976;26;20342;-67
2024/04/21 04:06:47;;;;;;;2.15;0.98;;;;;;;-146.27;85.78;43797.38;5506161;26;19997;-67
2024/04/21 04:09:12;;;;;;;10.30;1.90;;;;;;;-146.27;84.20;43845.13;5462600;25;20026;-65
2024/04/21 04:11:38;;;;;;;6.15;1.30;;;;;;;-146.27;84.70;43851.09;5476402;26;19995;-65
2024/04/21 04:14:03;;;;;;;8.38;1.00;;;;;;;-146.27;84.15;43872.97;5469924;26;20007;-66
2024/04/21 04:16:28;;;;;;;11.25;1.48;;;;;;;-146.27;83.59;43900.81;5484499;26;19994;-65
2024/04/21 04:18:54;;;;;;;9.63;1.48;;;;;;;-146.27;84.30;43876.94;5478513;26;20067;-65
2024/04/21 04:21:19;;;;;;;7.03;1.40;;;;;;;-146.27;84.50;43898.84;5461971;26;20320;-66
2024/04/21 04:23:44;;;;;;;4.65;1.17;;;;;;;-146.27;83.87;43888.88;5470998;26;20009;-68
2024/04/21 04:26:10;;;;;;;3.35;1.27;;;;;;;-146.27;84.02;43950.56;5449979;26;20050;-68
2024/04/21 04:28:35;;;;;;;8.93;1.33;;;;;;;-146.27;83.64;43982.38;5463771;26;19998;-66
2024/04/21 04:31:00;;;;;;;9.35;1.10;;;;;;;-146.27;83.69;44002.28;5482477;26;20016;-67
2024/04/21 04:33:26;;;;;;;12.27;1.30;;;;;;;-146.27;83.63;44036.09;5472911;26;19998;-67
2024/04/21 04:35:51;;;;;;;13.00;2.28;;;;;;;-146.27;83.99;44014.22;5485106;26;19995;-66
2024/04/21 04:38:16;;;;;;;14.48;2.00;;;;;;;-146.27;83.52;44075.91;5503317;26;19997;-67
2024/04/21 04:40:41;;;;;;;9.98;1.23;;;;;;;-146.27;83.83;44107.72;5459862;25;20006;-68
2024/04/21 04:43:07;;;;;;;10.32;1.92;;;;;;;-146.27;83.94;44105.75;5465482;26;20002;-67
2024/04/21 04:45:32;;;;;;;11.30;1.50;;;;;;;-146.27;84.37;44127.63;5454074;26;19994;-67
2024/04/21 04:47:58;;;;;;;13.52;1.73;;;;;;;-146.27;84.11;44147.53;5470779;26;20341;-71
2024/04/21 04:50:23;;;;;;;7.10;1.85;;;;;;;-146.27;83.88;44175.38;5485052;26;20006;-67
2024/04/21 04:52:55;;;;;;;11.55;1.52;;;;;;;-146.27;83.87;44203.22;5472569;26;20013;-68
2024/04/21 04:55:20;;;;;;;18.83;1.75;;;;;;;-146.27;83.96;44250.97;5481363;25;20002;-66
2024/04/21 04:57:45;;;;;;;7.55;1.60;;;;;;;-146.27;84.04;44306.69;5488124;26;20450;-67
2024/04/21 05:00:11;;;;;;;6.55;1.13;;;;;;;-146.27;84.09;44286.78;5519882;26;20065;-67
2024/04/21 05:02:37;;;;;;;11.85;1.90;;;;;;;-146.27;83.88;44368.38;5494259;25;19998;-67
2024/04/21 05:05:02;;;;;;;11.88;1.95;;;;;;;-146.27;84.47;44410.16;5468264;26;20455;-67
2024/04/21 05:07:28;;;;;;;9.25;1.73;;;;;;;-146.27;83.94;44473.84;5478936;26;20678;-67
2024/04/21 05:09:53;;;;;;;5.28;1.50;;;;;;;-146.27;84.10;44515.63;5487997;26;19998;-65
2024/04/21 05:12:19;;;;;;;11.75;1.88;;;;;;;-146.27;84.23;44553.41;5478247;26;20105;-70
2024/04/21 05:14:44;;;;;;;10.38;1.90;;;;;;;-146.27;84.48;44565.38;5454918;26;20384;-70
2024/04/21 05:17:10;;;;;;;6.55;1.70;;;;;;;-146.27;84.17;44595.22;5466320;26;20450;-70
2024/04/21 05:19:35;;;;;;;10.13;1.30;;;;;;;-146.27;84.33;44597.19;5467014;26;20006;-69
2024/04/21 05:22:00;;;;;;;7.35;1.20;;;;;;;-146.27;84.06;44637.00;5452374;26;20067;-70
2024/04/21 05:24:26;;;;;;;11.32;1.48;;;;;;;-146.27;84.44;44635.00;5499375;26;19997;-71
2024/04/21 05:26:51;;;;;;;6.25;1.20;;;;;;;-146.27;84.79;44609.13;5485135;25;19998;-71
2024/04/21 05:29:16;;;;;;;14.02;1.50;;;;;;;-146.27;84.40;44668.84;5488169;26;20005;-70
2024/04/21 05:31:42;;;;;;;13.40;1.65;;;;;;;-146.27;84.23;44668.84;5488661;26;19998;-68
2024/04/21 05:34:07;;;;;;;7.47;1.35;;;;;;;-146.27;83.74;44678.78;5487860;26;19994;-70
2024/04/21 05:36:32;;;;;;;4.70;1.00;;;;;;;-146.27;83.15;44694.69;5477372;26;20010;-70
2024/04/21 05:38:57;;;;;;;10.98;1.45;;;;;;;-146.27;83.34;44712.59;5516404;26;19994;-69
2024/04/21 05:41:23;;;;;;;10.68;1.20;;;;;;;-146.27;84.03;44732.50;5485480;25;20546;-70
2024/04/21 05:43:48;;;;;;;8.07;1.60;;;;;;;-146.27;83.85;44690.72;5483878;26;20439;-70
2024/04/21 05:46:14;;;;;;;6.75;1.30;;;;;;;-146.27;83.33;44720.56;5463440;26;19994;-70
2024/04/21 05:48:39;;;;;;;12.88;1.45;;;;;;;-146.27;83.21;44750.41;5455102;26;20052;-68
2024/04/21 05:51:04;;;;;;;12.75;1.30;;;;;;;-146.27;83.53;44728.53;5480464;26;20071;-70
2024/04/21 05:53:30;;;;;;;5.72;1.10;;;;;;;-146.27;83.38;44748.44;5499712;26;19998;-69
2024/04/21 05:55:55;;;;;;;16.23;1.60;;;;;;;-146.27;83.06;44742.47;5471024;25;20015;-70
2024/04/21 05:58:20;;;;;;;14.05;2.00;;;;;;;-146.27;83.43;44748.44;5451092;26;20039;-71
2024/04/21 06:00:46;;;;;;;8.70;1.48;;;;;;;-146.27;83.02;44738.47;5456847;26;19999;-70
2024/04/21 06:03:11;;;;;;;9.00;2.22;;;;;;;-146.27;82.92;44744.44;5514255;26;20034;-70
2024/04/21 06:05:36;;;;;;;10.40;1.35;;;;;;;-146.27;82.75;44798.19;5503907;25;19999;-69
2024/04/21 06:08:03;;;;;;;6.05;1.10;;;;;;;-146.27;82.19;44780.25;5451155;26;20383;-70
2024/04/21 06:10:28;;;;;;;13.07;1.65;;;;;;;-146.27;82.25;44808.13;5507626;26;20393;-70
2024/04/21 06:12:55;;;;;;;7.45;1.38;;;;;;;-146.27;81.55;44830.00;5456080;25;20007;-71
2024/04/21 06:15:20;;;;;;;8.50;1.40;;;;;;;-146.27;82.01;44863.84;5450593;26;19999;-70
2024/04/21 06:17:45;;;;;;;6.07;1.30;;;;;;;-146.27;81.85;44816.09;5457342;26;20674;-70
2024/04/21 06:20:11;;;;;;;7.43;1.60;;;;;;;-146.27;81.36;44915.59;5469710;26;20017;-70
2024/04/21 06:22:37;;;;;;;14.70;1.58;;;;;;;-146.27;81.19;44885.72;5452943;26;20013;-67
2024/04/21 06:25:02;;;;;;;5.65;1.23;;;;;;;-146.27;80.89;44931.50;5512493;25;19998;-66
2024/04/21 06:27:29;;;;;;;7.50;1.10;;;;;;;-146.27;81.00;44961.34;5483116;26;19998;-68
2024/04/21 06:29:55;;;;;;;14.50;1.73;;;;;;;-146.27;81.13;44925.53;5485565;26;20322;-68
2024/04/21 06:32:21;;;;;;;9.88;1.10;;;;;;;-146.27;80.27;44993.19;5463639;26;20006;-66
2024/04/21 06:34:46;;;;;;;8.07;0.80;;;;;;;-146.27;80.10;44967.31;5481466;26;20446;-66
2024/04/21 06:37:12;;;;;;;8.70;1.48;;;;;;;-146.27;80.01;44927.53;5456314;26;20072;-69
2024/04/21 06:39:37;;;;;;;8.57;0.80;;;;;;;-146.27;80.14;44915.59;5459032;26;20097;-68
2024/04/21 06:42:04;;;;;;;12.48;1.70;;;;;;;-146.27;80.51;44915.59;5476999;26;19998;-72
2024/04/21 06:44:29;;;;;;;8.15;1.20;;;;;;;-146.27;79.61;44951.41;5486683;26;20338;-69
2024/04/21 06:46:54;;;;;;;11.65;1.58;;;;;;;-146.27;79.32;45021.06;5469001;26;20006;-68
2024/04/21 06:49:20;;;;;;;7.82;1.02;;;;;;;-146.27;79.57;45019.06;5443463;26;969051;-67
2024/04/21 06:51:45;;;;;;;4.20;1.17;;;;;;;-146.27;79.69;45076.78;5460742;26;19990;-67
2024/04/21 06:54:10;;;;;;;4.80;1.73;;;;;;;-146.27;79.26;44993.19;5476163;26;20376;-66
2024/04/21 06:56:35;;;;;;;4.75;1.10;;;;;;;-146.27;78.72;45098.66;5486743;26;20030;-67
2024/04/21 06:59:01;;;;;;;9.10;1.42;;;;;;;-146.27;78.49;45142.44;5486797;26;19998;-65
2024/04/21 07:01:26;;;;;;;7.68;1.13;;;;;;;-146.27;79.16;45070.81;5472769;26;20076;-68
2024/04/21 07:03:52;;;;;;;8.85;1.00;;;;;;;-146.27;78.60;45120.56;5459501;26;20025;-67
2024/04/21 07:06:17;;;;;;;6.00;1.70;;;;;;;-146.27;77.97;45076.78;5486630;26;19990;-66
2024/04/21 07:08:42;;;;;;;9.95;1.35;;;;;;;-146.27;78.08;45142.44;5483688;26;20066;-68
2024/04/21 07:11:08;;;;;;;5.22;1.15;;;;;;;-146.27;77.31;45237.97;5452148;26;20131;-67
2024/04/21 07:13:33;;;;;;;11.13;1.38;;;;;;;-146.27;77.30;45230.00;5464964;26;20018;-67
2024/04/21 07:15:58;;;;;;;10.15;0.90;;;;;;;-146.27;77.58;45200.16;5462576;26;20075;-67
2024/04/21 07:18:24;;;;;;;7.60;1.38;;;;;;;-146.27;76.86;45218.06;5461582;26;20002;-67
2024/04/21 07:20:49;;;;;;;6.45;0.80;;;;;;;-146.27;75.84;45301.66;5463761;26;19990;-68
2024/04/21 07:23:15;;;;;;;7.85;0.90;;;;;;;-146.27;74.75;45323.56;5465136;26;20035;-68
2024/04/21 07:25:40;;;;;;;9.70;0.95;;;;;;;-146.27;75.36;45337.47;5455593;26;20977;-66
2024/04/21 07:28:05;;;;;;;7.18;1.00;;;;;;;-146.27;74.99;45303.66;5477327;26;20078;-68
2024/04/21 07:30:31;;;;;;;11.32;1.33;;;;;;;-146.27;74.73;45293.69;5466306;26;20126;-67
2024/04/21 07:32:56;;;;;;;6.25;1.83;;;;;;;-146.27;74.63;45297.69;5468072;26;19998;-69
2024/04/21 07:35:22;;;;;;;3.00;0.80;;;;;;;-146.27;73.51;45405.16;5464890;26;20061;-71
2024/04/21 07:37:47;;;;;;;7.97;1.52;;;;;;;-146.27;73.14;45488.75;5466347;26;19998;-70
2024/04/21 07:40:16;;;;;;;6.22;1.35;;;;;;;-146.27;72.47;45534.50;5456724;26;19991;-70
2024/04/21 07:42:42;;;;;;;8.88;1.20;;;;;;;-146.27;72.52;45474.81;5470478;26;19995;-70
2024/04/21 07:45:08;;;;;;;11.50;1.00;;;;;;;-146.27;72.93;45472.81;5458790;26;20343;-70
2024/04/21 07:47:33;;;;;;;4.78;1.00;;;;;;;-146.27;72.36;45604.19;5483148;26;20002;-71
2024/04/21 07:49:59;;;;;;;2.35;0.75;;;;;;;-146.27;72.79;45596.22;5459350;26;20351;-70
2024/04/21 07:52:24;;;;;;;7.57;2.05;;;;;;;-146.27;72.13;45604.19;5453360;26;20500;-70
2024/04/21 07:54:50;;;;;;;9.45;1.42;;;;;;;-146.27;73.13;45592.22;5459246;26;20388;-71
2024/04/21 07:57:15;;;;;;;4.80;1.25;;;;;;;-146.27;72.27;45610.16;5466057;26;20026;-70
2024/04/21 07:59:40;;;;;;;4.47;0.77;;;;;;;-146.27;71.62;45655.94;5453133;26;20072;-70
2024/04/21 08:02:06;;;;;;;12.45;1.20;;;;;;;-146.27;71.31;45657.91;5473274;26;20024;-71
2024/04/21 08:04:31;;;;;;;6.28;1.05;;;;;;;-146.27;70.79;45713.66;5449591;26;19991;-72
2024/04/21 08:06:57;;;;;;;5.38;0.90;;;;;;;-146.27;71.07;45743.50;5451276;26;20010;-72
2024/04/21 08:09:22;;;;;;;15.38;2.00;;;;;;;-146.27;69.93;45727.56;5456075;26;20480;-70
2024/04/21 08:11:47;;;;;;;7.07;1.13;;;;;;;-146.27;71.65;45709.66;5470982;26;20308;-73
2024/04/21 08:14:13;;;;;;;5.80;1.23;;;;;;;-146.27;71.83;45747.47;5452505;26;20571;-70
2024/04/21 08:16:39;;;;;;;7.45;1.30;;;;;;;-146.27;72.84;45667.88;5451196;26;20007;-71
2024/04/21 08:19:05;;;;;;;7.68;1.15;;;;;;;-146.27;69.56;45723.59;5467883;26;20446;-70
2024/04/21 08:21:30;;;;;;;6.95;1.65;;;;;;;-146.27;69.82;45787.28;5482689;26;20001;-71
2024/04/21 08:23:55;;;;;;;5.75;1.20;;;;;;;-146.27;69.65;45787.28;5453728;26;20009;-71
2024/04/21 08:26:21;;;;;;;7.55;1.33;;;;;;;-146.27;68.49;45902.75;5479024;26;20497;-71
2024/04/21 08:28:47;;;;;;;9.27;1.38;;;;;;;-146.27;68.47;45870.88;5463975;26;20010;-71
2024/04/21 08:31:12;;;;;;;9.73;1.05;;;;;;;-146.27;67.76;45850.97;5465592;26;20474;-71
2024/04/21 08:33:38;;;;;;;11.43;1.25;;;;;;;-146.27;69.43;45821.13;5454580;26;20519;-71
2024/04/21 08:36:05;;;;;;;8.80;1.52;;;;;;;-146.27;68.40;45827.09;5475175;26;20071;-71
2024/04/21 08:38:30;;;;;;;10.07;1.90;;;;;;;-146.27;68.79;45807.19;5466313;26;20342;-70
2024/04/21 08:40:58;;;;;;;12.18;0.95;;;;;;;-146.27;67.83;45811.19;5448309;26;20030;-71
2024/04/21 08:43:25;;;;;;;9.90;1.83;;;;;;;-146.27;67.45;45845.00;5448281;26;19999;-67
2024/04/21 08:45:55;;;;;;;7.05;1.33;;;;;;;-146.27;65.42;45898.75;5455849;26;20003;-68
2024/04/21 08:48:22;;;;;;;16.30;1.60;;;;;;;-146.27;65.79;45928.63;5451209;26;20017;-66
2024/04/21 08:50:49;;;;;;;6.00;1.50;;;;;;;-146.27;66.42;45886.81;5445892;26;20346;-66
2024/04/21 08:53:15;;;;;;;5.65;0.88;;;;;;;-146.27;65.22;45978.38;5448206;26;19995;-68
2024/04/21 08:55:46;;;;;;;13.15;1.10;;;;;;;-146.27;65.97;45948.53;5478397;26;20012;-67
2024/04/21 08:58:13;;;;;;;4.47;1.02;;;;;;;-146.27;64.21;45926.63;5462219;26;19990;-68
2024/04/21 09:00:39;;;;;;;12.02;1.48;;;;;;;-146.27;64.35;45948.53;5482274;26;20014;-67
2024/04/21 09:03:05;;;;;;;3.00;0.80;;;;;;;-146.27;63.37;45972.41;5458911;26;20070;-67
2024/04/21 09:05:35;;;;;;;6.93;1.20;;;;;;;-146.27;65.04;45894.78;5452139;26;20491;-67
2024/04/21 09:08:00;;;;;;;10.55;1.85;;;;;;;-146.27;65.09;45831.09;5477103;26;20335;-66
2024/04/21 09:10:27;;;;;;;6.50;1.10;;;;;;;-146.27;63.32;45880.84;5477480;26;20017;-67
2024/04/21 09:12:53;;;;;;;4.85;0.80;;;;;;;-146.27;58.76;46109.75;5466861;26;20828;-68
2024/04/21 09:15:20;;;;;;;11.25;1.35;;;;;;;-146.27;57.81;46197.34;5464334;26;20017;-67
2024/04/21 09:17:46;;;;;;;2.65;0.93;;;;;;;-146.27;57.87;46255.06;5467399;26;19998;-68
2024/04/21 09:20:12;;;;;;;3.22;1.23;;;;;;;-146.27;57.63;46272.97;5468724;26;19994;-69
2024/04/21 09:22:38;;;;;;;4.43;1.10;;;;;;;-146.27;58.58;46308.81;5470586;26;19998;-68
2024/04/21 09:25:05;;;;;;;4.35;0.60;;;;;;;-146.27;58.16;46344.66;5457758;26;20017;-67
2024/04/21 09:27:30;;;;;;;5.80;0.85;;;;;;;-146.27;57.64;46380.47;5464070;26;20002;-68
2024/04/21 09:29:57;;;;;;;6.10;1.60;;;;;;;-146.27;58.38;46392.44;5466735;26;20018;-67
2024/04/21 09:32:27;;;;;;;2.17;0.88;;;;;;;-146.27;59.95;46368.53;5466297;26;20008;-69
2024/04/21 09:34:56;;;;;;;4.93;0.80;;;;;;;-146.27;61.24;46352.63;5475644;26;19999;-67
2024/04/21 09:37:23;;;;;;;3.78;0.90;;;;;;;-146.27;60.91;46308.81;5481969;26;19995;-69
2024/04/21 09:39:50;;;;;;;5.95;1.02;;;;;;;-146.27;58.83;46269.00;5475298;26;20462;-70
2024/04/21 09:42:18;;;;;;;5.85;1.25;;;;;;;-146.27;60.07;46284.94;5458548;26;19991;-68
2024/04/21 09:44:44;;;;;;;4.55;1.00;;;;;;;-146.27;57.86;46288.91;5466373;26;20063;-68
2024/04/21 09:47:13;;;;;;;5.28;0.70;;;;;;;-146.27;58.11;46241.13;5466562;26;20002;-66
2024/04/21 09:49:41;;;;;;;6.32;0.90;;;;;;;-146.27;59.40;46145.59;5480316;26;19995;-68
2024/04/21 09:52:08;;;;;;;5.63;1.02;;;;;;;-146.27;58.95;46075.91;5468514;26;20624;-71
2024/04/21 09:54:34;;;;;;;6.07;0.70;;;;;;;-146.27;51.64;46286.91;5474820;26;20451;-71
2024/04/21 09:57:18;;;;;;;8.30;1.00;;;;;;;-146.27;52.73;46288.91;5484636;26;20038;-71
2024/04/21 09:59:46;;;;;;;4.78;1.00;;;;;;;-146.27;49.28;46476.03;5459831;26;20001;-69
2024/04/21 10:02:22;;;;;;;5.45;1.10;;;;;;;-146.27;50.01;46487.97;5480901;26;20474;-68
2024/04/21 10:05:09;;;;;;;2.92;1.15;;;;;;;-146.27;50.07;46545.72;5485433;26;20074;-70
2024/04/21 10:07:39;;;;;;;3.92;0.93;;;;;;;-146.27;51.78;46487.97;5456036;26;20021;-70
2024/04/21 10:10:16;;;;;;;3.00;0.63;;;;;;;-146.27;49.41;46539.75;5468914;26;19994;-70
2024/04/21 10:12:44;;;;;;;5.70;0.80;;;;;;;-146.27;52.31;46559.66;5453301;26;19995;-70
2024/04/21 10:15:11;;;;;;;6.80;1.27;;;;;;;-146.27;50.62;46603.44;5473557;26;20002;-68
2024/04/21 10:17:37;;;;;;;1.95;0.45;;;;;;;-146.27;52.42;46617.38;5477312;26;20039;-71
2024/04/21 10:20:05;;;;;;;4.60;1.08;;;;;;;-146.27;51.43;46657.19;5470653;26;20002;-70
2024/04/21 10:22:32;;;;;;;4.15;0.85;;;;;;;-146.27;52.54;46597.47;5484358;26;20366;-69
2024/04/21 10:24:57;;;;;;;4.68;0.88;;;;;;;-146.27;50.42;46599.47;5483370;26;20443;-70
2024/04/21 10:27:22;;;;;;;2.45;0.80;;;;;;;-146.27;51.07;46631.31;5460972;26;20005;-71
2024/04/21 10:29:49;;;;;;;3.20;1.00;;;;;;;-146.27;52.10;46607.44;5461918;26;20009;-69
2024/04/21 10:32:22;;;;;;;7.07;1.20;;;;;;;-146.27;55.44;46573.59;5483305;26;20006;-70
2024/04/21 10:34:49;;;;;;;5.07;0.77;;;;;;;-146.27;54.19;46551.69;5482032;26;19994;-68
2024/04/21 10:37:25;;;;;;;2.00;0.80;;;;;;;-146.27;54.41;46563.63;5479529;26;20012;-69
2024/04/21 10:40:03;;;;;;;1.88;0.70;;;;;;;-146.27;52.75;46587.53;5485265;26;20021;-69
2024/04/21 10:42:33;;;;;;;7.07;0.90;;;;;;;-146.27;54.37;46627.34;5469986;26;20354;-70
2024/04/21 10:44:59;;;;;;;2.80;1.00;;;;;;;-146.27;52.97;46579.56;5470585;26;19999;-69
2024/04/21 10:47:26;;;;;;;11.35;1.73;;;;;;;-146.27;54.82;46555.66;5469399;26;19995;-69
2024/04/21 10:49:52;;;;;;;3.33;0.90;;;;;;;-146.27;50.89;46619.38;5457380;26;20307;-70
2024/04/21 10:52:17;;;;;;;1.38;0.70;;;;;;;-146.27;53.29;46539.75;5463061;26;20013;-69
2024/04/21 10:54:43;;;;;;;3.67;0.90;;;;;;;-146.27;51.76;46533.78;5473860;26;20412;-70
2024/04/21 10:57:09;;;;;;;1.70;0.60;;;;;;;-146.27;52.99;46362.56;5460646;26;20007;-72
2024/04/21 10:59:34;;;;;;;6.43;1.20;;;;;;;-146.27;53.24;46468.06;5470412;26;19998;-70
2024/04/21 11:02:00;;;;;;;4.45;0.90;;;;;;;-146.27;48.66;46531.78;5471208;26;19999;-71
2024/04/21 11:04:27;;;;;;;5.18;1.08;;;;;;;-146.27;52.79;46380.47;5454801;26;20021;-70
2024/04/21 11:06:53;;;;;;;5.75;1.25;;;;;;;-146.27;50.08;46362.56;5463392;26;20017;-71
2024/04/21 11:09:19;;;;;;;5.25;0.90;;;;;;;-146.27;48.42;46519.84;5485551;26;20449;-70